createdAt,value
2019-04-22T00:00:25.828Z,7.48
2019-04-22T00:00:57.273Z,7.50
2019-04-22T00:01:31.198Z,7.51
2019-04-22T00:02:03.851Z,7.54
2019-04-22T00:02:41.002Z,7.60
2019-04-22T00:03:10.278Z,7.65
2019-04-22T00:03:50.882Z,7.70
2019-04-22T00:04:23.481Z,7.73
2019-04-22T00:05:02.226Z,7.76
2019-04-22T00:05:42.819Z,7.79
2019-04-22T00:06:13.300Z,7.80
2019-04-22T00:06:51.732Z,7.82
2019-04-22T00:07:22.157Z,7.81
2019-04-22T00:08:00.338Z,7.83
2019-04-22T00:08:29.683Z,7.82
2019-04-22T00:09:03.305Z,7.82
2019-04-22T00:09:38.743Z,7.82
2019-04-22T00:10:13.400Z,7.81
2019-04-22T00:10:47.153Z,7.80
2019-04-22T00:11:18.362Z,7.79
2019-04-22T00:11:54.652Z,7.77
2019-04-22T00:12:28.043Z,7.77
2019-04-22T00:12:57.810Z,7.76
2019-04-22T00:13:37.587Z,7.75
2019-04-22T00:14:28.319Z,7.76
2019-04-22T00:15:03.674Z,7.78
2019-04-22T00:15:33.942Z,7.81
2019-04-22T00:16:22.609Z,7.84
2019-04-22T00:16:51.937Z,7.87
2019-04-22T00:17:35.538Z,7.89
2019-04-22T00:18:02.465Z,7.90
2019-04-22T00:18:40.472Z,7.91
2019-04-22T00:19:15.432Z,7.90
2019-04-22T00:19:40.661Z,7.90
2019-04-22T00:20:08.710Z,7.89
2019-04-22T00:20:43.637Z,7.88
2019-04-22T00:21:22.549Z,7.85
2019-04-22T00:22:00.527Z,7.84
2019-04-22T00:22:59.460Z,7.83
2019-04-22T00:23:37.409Z,7.82
2019-04-22T00:24:05.619Z,7.80
2019-04-22T00:24:38.956Z,7.78
2019-04-22T00:25:13.331Z,7.76
2019-04-22T00:25:52.852Z,7.76
2019-04-22T00:26:20.322Z,7.79
2019-04-22T00:26:59.482Z,7.80
2019-04-22T00:27:29.413Z,7.81
2019-04-22T00:28:06.688Z,7.82
2019-04-22T00:28:39.345Z,7.81
2019-04-22T00:29:10.962Z,7.79
2019-04-22T00:30:32.544Z,7.82
2019-04-22T00:30:45.234Z,7.83
2019-04-22T00:31:19.216Z,7.84
2019-04-22T00:31:47.963Z,7.84
2019-04-22T00:32:19.489Z,7.84
2019-04-22T00:32:49.229Z,7.83
2019-04-22T00:33:26.532Z,7.86
2019-04-22T00:33:59.191Z,7.84
2019-04-22T00:34:30.192Z,7.86
2019-04-22T00:35:07.249Z,7.92
2019-04-22T00:35:37.525Z,8.04
2019-04-22T00:36:16.640Z,8.15
2019-04-22T00:36:43.784Z,8.27
2019-04-22T00:37:23.314Z,8.38
2019-04-22T00:37:59.804Z,8.45
2019-04-22T00:38:59.039Z,8.62
2019-04-22T00:39:37.317Z,8.68
2019-04-22T00:40:07.207Z,8.70
2019-04-22T00:40:39.291Z,8.69
2019-04-22T00:41:14.942Z,8.70
2019-04-22T00:41:47.032Z,8.73
2019-04-22T00:42:18.844Z,8.79
2019-04-22T00:42:53.535Z,8.81
2019-04-22T00:43:26.726Z,8.84
2019-04-22T00:44:05.309Z,8.86
2019-04-22T00:44:35.596Z,8.86
2019-04-22T00:45:07.986Z,8.89
2019-04-22T00:45:40.503Z,8.91
2019-04-22T00:46:11.320Z,8.93
2019-04-22T00:46:46.378Z,8.99
2019-04-22T00:47:24.946Z,9.06
2019-04-22T00:47:56.342Z,9.10
2019-04-22T00:48:27.544Z,9.16
2019-04-22T00:49:49.040Z,9.20
2019-04-22T00:50:07.873Z,9.21
2019-04-22T00:50:20.348Z,9.22
2019-04-22T00:50:37.449Z,9.20
2019-04-22T00:51:15.953Z,9.22
2019-04-22T00:51:51.810Z,9.19
2019-04-22T00:52:56.060Z,8.30
2019-04-22T00:53:35.238Z,9.16
2019-04-22T00:54:03.496Z,9.16
2019-04-22T00:54:43.931Z,9.16
2019-04-22T00:55:40.431Z,9.15
2019-04-22T00:56:48.233Z,9.16
2019-04-22T00:57:21.531Z,9.16
2019-04-22T00:58:00.129Z,9.15
2019-04-22T00:58:26.082Z,9.17
2019-04-22T00:58:59.136Z,9.19
2019-04-22T00:59:32.949Z,6.34
2019-04-22T01:00:05.439Z,9.26
2019-04-22T01:00:40.556Z,9.28
2019-04-22T01:01:15.767Z,9.29
2019-04-22T01:01:47.120Z,9.35
2019-04-22T01:02:20.269Z,9.39
2019-04-22T01:02:57.385Z,9.44
2019-04-22T01:03:27.433Z,9.46
2019-04-22T01:04:35.027Z,9.44
2019-04-22T01:05:03.946Z,9.41
2019-04-22T01:05:34.172Z,9.39
2019-04-22T01:06:12.663Z,9.36
2019-04-22T01:06:41.325Z,9.33
2019-04-22T01:07:11.434Z,9.29
2019-04-22T01:07:43.572Z,9.24
2019-04-22T01:08:21.087Z,9.18
2019-04-22T01:08:57.879Z,9.14
2019-04-22T01:09:23.328Z,9.08
2019-04-22T01:09:58.659Z,9.00
2019-04-22T01:10:31.760Z,8.93
2019-04-22T01:11:13.369Z,8.90
2019-04-22T01:11:33.588Z,8.85
2019-04-22T01:12:13.518Z,8.82
2019-04-22T01:12:44.318Z,8.76
2019-04-22T01:13:21.446Z,8.71
2019-04-22T01:13:53.509Z,8.64
2019-04-22T01:14:22.243Z,8.62
2019-04-22T01:15:05.746Z,8.56
2019-04-22T01:15:39.021Z,8.52
2019-04-22T01:16:09.352Z,8.46
2019-04-22T01:16:39.298Z,8.41
2019-04-22T01:17:07.260Z,8.38
2019-04-22T01:17:46.752Z,8.33
2019-04-22T01:18:11.737Z,8.28
2019-04-22T01:18:49.028Z,8.24
2019-04-22T01:19:23.495Z,8.16
2019-04-22T01:19:56.315Z,8.07
2019-04-22T01:20:58.863Z,7.99
2019-04-22T01:21:43.658Z,7.88
2019-04-22T01:22:12.552Z,7.86
2019-04-22T01:22:33.029Z,7.84
2019-04-22T01:23:14.744Z,7.78
2019-04-22T01:23:41.100Z,7.76
2019-04-22T01:24:17.545Z,7.73
2019-04-22T01:24:50.092Z,7.69
2019-04-22T01:25:20.556Z,7.61
2019-04-22T01:25:55.258Z,7.56
2019-04-22T01:26:27.371Z,7.50
2019-04-22T01:27:00.017Z,7.44
2019-04-22T01:27:30.956Z,7.36
2019-04-22T01:28:01.370Z,7.33
2019-04-22T01:28:34.525Z,7.29
2019-04-22T01:29:05.083Z,7.26
2019-04-22T01:29:39.630Z,7.23
2019-04-22T01:30:13.606Z,7.22
2019-04-22T01:30:43.024Z,7.19
2019-04-22T01:31:10.241Z,7.16
2019-04-22T01:31:40.014Z,7.12
2019-04-22T01:32:15.300Z,7.09
2019-04-22T01:32:47.233Z,7.07
2019-04-22T01:33:23.780Z,7.05
2019-04-22T01:34:07.917Z,7.02
2019-04-22T01:34:36.162Z,6.98
2019-04-22T01:35:10.848Z,6.94
2019-04-22T01:35:39.782Z,6.87
2019-04-22T01:36:23.235Z,6.85
2019-04-22T01:36:56.070Z,6.85
2019-04-22T01:37:26.872Z,6.85
2019-04-22T01:37:54.162Z,6.85
2019-04-22T01:38:31.378Z,6.82
2019-04-22T01:39:12.299Z,6.81
2019-04-22T01:39:43.530Z,6.78
2019-04-22T01:40:21.405Z,6.75
2019-04-22T01:40:58.620Z,6.73
2019-04-22T01:41:25.309Z,6.69
2019-04-22T01:41:59.899Z,6.69
2019-04-22T01:42:37.654Z,6.69
2019-04-22T01:43:10.102Z,6.66
2019-04-22T01:43:41.003Z,6.63
2019-04-22T01:44:15.834Z,6.62
2019-04-22T01:44:57.065Z,6.59
2019-04-22T01:45:22.808Z,6.58
2019-04-22T01:45:54.375Z,6.55
2019-04-22T01:46:29.980Z,6.53
2019-04-22T01:46:58.461Z,6.52
2019-04-22T01:47:31.326Z,6.51
2019-04-22T01:48:06.528Z,6.47
2019-04-22T01:48:40.547Z,6.42
2019-04-22T01:49:08.718Z,6.35
2019-04-22T01:49:44.186Z,6.31
2019-04-22T01:50:12.342Z,6.30
2019-04-22T01:50:43.158Z,6.30
2019-04-22T01:51:22.313Z,6.33
2019-04-22T01:51:58.683Z,6.29
2019-04-22T01:52:20.338Z,6.28
2019-04-22T01:53:06.485Z,6.31
2019-04-22T01:53:33.482Z,6.27
2019-04-22T01:54:04.152Z,6.16
2019-04-22T01:54:45.213Z,6.09
2019-04-22T01:55:21.955Z,6.02
2019-04-22T01:55:43.969Z,5.97
2019-04-22T01:56:22.239Z,5.89
2019-04-22T01:56:53.844Z,5.85
2019-04-22T01:57:22.795Z,5.82
2019-04-22T01:57:57.972Z,5.77
2019-04-22T01:58:25.652Z,5.74
2019-04-22T01:58:57.414Z,5.70
2019-04-22T01:59:26.891Z,5.68
2019-04-22T02:00:00.442Z,5.64
2019-04-22T02:00:44.317Z,5.60
2019-04-22T02:01:18.487Z,5.56
2019-04-22T02:01:52.835Z,5.53
2019-04-22T02:02:23.310Z,5.50
2019-04-22T02:02:59.221Z,5.49
2019-04-22T02:04:00.901Z,5.47
2019-04-22T02:04:36.860Z,5.45
2019-04-22T02:05:16.169Z,5.45
2019-04-22T02:05:35.462Z,5.43
2019-04-22T02:06:17.273Z,5.41
2019-04-22T02:07:16.890Z,5.40
2019-04-22T02:07:49.249Z,5.40
2019-04-22T02:08:36.469Z,5.40
2019-04-22T02:09:00.518Z,5.43
2019-04-22T02:09:38.023Z,5.44
2019-04-22T02:10:07.412Z,5.45
2019-04-22T02:10:39.235Z,5.46
2019-04-22T02:11:17.375Z,5.48
2019-04-22T02:12:01.182Z,5.51
2019-04-22T02:12:19.839Z,5.53
2019-04-22T02:12:55.476Z,5.55
2019-04-22T02:13:21.410Z,5.56
2019-04-22T02:13:58.723Z,5.57
2019-04-22T02:14:37.459Z,5.58
2019-04-22T02:15:05.913Z,5.59
2019-04-22T02:15:46.511Z,5.60
2019-04-22T02:16:16.157Z,5.61
2019-04-22T02:16:43.203Z,5.57
2019-04-22T02:17:17.597Z,5.62
2019-04-22T02:17:56.198Z,5.63
2019-04-22T02:18:23.162Z,5.65
2019-04-22T02:18:58.407Z,5.66
2019-04-22T02:19:30.359Z,5.65
2019-04-22T02:19:58.050Z,5.63
2019-04-22T02:20:31.454Z,5.64
2019-04-22T02:21:01.492Z,5.64
2019-04-22T02:21:40.499Z,5.63
2019-04-22T02:22:07.297Z,5.65
2019-04-22T02:23:00.461Z,5.67
2019-04-22T02:24:02.659Z,5.68
2019-04-22T02:24:30.145Z,5.68
2019-04-22T02:25:04.633Z,5.68
2019-04-22T02:25:38.910Z,5.69
2019-04-22T02:26:40.509Z,5.72
2019-04-22T02:27:23.958Z,5.73
2019-04-22T02:28:03.327Z,5.75
2019-04-22T02:28:32.578Z,5.74
2019-04-22T02:29:06.476Z,5.75
2019-04-22T02:29:32.613Z,5.79
2019-04-22T02:30:01.459Z,5.80
2019-04-22T02:30:54.360Z,5.81
2019-04-22T02:32:59.039Z,5.86
2019-04-22T02:34:09.605Z,5.85
2019-04-22T02:34:32.791Z,5.83
2019-04-22T02:35:03.679Z,5.84
2019-04-22T02:35:52.136Z,5.85
2019-04-22T02:37:46.218Z,5.88
2019-04-22T02:38:35.676Z,5.87
2019-04-22T02:39:19.795Z,5.91
2019-04-22T02:40:03.737Z,5.93
2019-04-22T02:40:53.029Z,5.96
2019-04-22T02:41:23.107Z,5.96
2019-04-22T02:41:55.088Z,5.98
2019-04-22T02:42:14.044Z,5.98
2019-04-22T02:42:52.212Z,5.99
2019-04-22T02:43:33.987Z,5.99
2019-04-22T02:44:56.084Z,5.95
2019-04-22T02:45:42.175Z,5.97
2019-04-22T02:47:07.923Z,5.94
2019-04-22T02:47:15.249Z,5.96
2019-04-22T02:47:43.777Z,5.96
2019-04-22T02:49:11.747Z,5.94
2019-04-22T02:50:00.817Z,5.91
2019-04-22T02:50:36.585Z,5.89
2019-04-22T02:51:11.973Z,5.92
2019-04-22T02:51:43.249Z,5.91
2019-04-22T02:52:14.557Z,5.92
2019-04-22T02:53:37.510Z,5.91
2019-04-22T02:55:34.988Z,5.83
2019-04-22T02:56:15.590Z,5.82
2019-04-22T02:57:39.568Z,5.81
2019-04-22T02:58:27.323Z,5.82
2019-04-22T02:59:04.185Z,5.83
2019-04-22T03:00:10.036Z,5.82
2019-04-22T03:00:29.429Z,5.82
2019-04-22T03:01:05.406Z,5.82
2019-04-22T03:01:39.643Z,5.81
2019-04-22T03:02:14.278Z,5.81
2019-04-22T03:02:52.732Z,5.80
2019-04-22T03:04:01.624Z,5.77
2019-04-22T03:04:22.829Z,5.75
2019-04-22T03:05:13.102Z,5.72
2019-04-22T03:05:45.526Z,5.69
2019-04-22T03:06:18.323Z,5.67
2019-04-22T03:06:43.351Z,5.64
2019-04-22T03:07:12.726Z,5.64
2019-04-22T03:07:50.782Z,5.65
2019-04-22T03:08:23.930Z,5.66
2019-04-22T03:08:53.816Z,5.66
2019-04-22T03:09:34.052Z,5.66
2019-04-22T03:09:57.765Z,5.66
2019-04-22T03:10:47.333Z,5.67
2019-04-22T03:12:02.533Z,5.68
2019-04-22T03:12:19.614Z,5.68
2019-04-22T03:12:41.250Z,5.68
2019-04-22T03:13:34.177Z,5.68
2019-04-22T03:14:04.636Z,5.68
2019-04-22T03:14:22.895Z,5.66
2019-04-22T03:14:54.872Z,5.63
2019-04-22T03:15:41.042Z,5.61
2019-04-22T03:16:17.843Z,5.59
2019-04-22T03:16:50.391Z,5.59
2019-04-22T03:17:18.700Z,5.56
2019-04-22T03:18:35.458Z,5.50
2019-04-22T03:19:02.484Z,5.49
2019-04-22T03:19:48.207Z,5.50
2019-04-22T03:20:37.752Z,5.56
2019-04-22T03:21:10.656Z,5.57
2019-04-22T03:21:38.534Z,5.58
2019-04-22T03:22:16.931Z,5.59
2019-04-22T03:22:46.966Z,5.59
2019-04-22T03:23:47.635Z,5.62
2019-04-22T03:24:25.723Z,5.63
2019-04-22T03:26:24.561Z,5.65
2019-04-22T03:27:40.216Z,5.64
2019-04-22T03:28:24.096Z,5.63
2019-04-22T03:28:51.163Z,5.62
2019-04-22T03:29:17.968Z,5.60
2019-04-22T03:30:26.615Z,5.57
2019-04-22T03:32:16.575Z,5.50
2019-04-22T03:32:39.427Z,5.47
2019-04-22T03:33:29.433Z,5.44
2019-04-22T03:34:49.438Z,5.43
2019-04-22T03:36:18.674Z,5.46
2019-04-22T03:38:19.828Z,5.40
2019-04-22T03:39:06.841Z,5.37
2019-04-22T03:40:04.210Z,5.36
2019-04-22T03:41:58.039Z,5.36
2019-04-22T03:43:33.801Z,5.29
2019-04-22T03:44:10.541Z,5.28
2019-04-22T03:45:00.537Z,5.29
2019-04-22T03:45:55.801Z,5.37
2019-04-22T03:46:43.961Z,5.44
2019-04-22T03:47:41.514Z,5.58
2019-04-22T03:48:17.665Z,5.63
2019-04-22T03:49:07.178Z,5.72
2019-04-22T03:50:25.359Z,5.93
2019-04-22T03:51:07.534Z,6.01
2019-04-22T03:52:36.910Z,6.14
2019-04-22T03:53:15.093Z,6.16
2019-04-22T03:53:53.391Z,6.19
2019-04-22T03:54:31.263Z,6.18
2019-04-22T03:55:03.265Z,6.18
2019-04-22T03:55:43.528Z,6.14
2019-04-22T03:56:04.814Z,6.11
2019-04-22T03:57:12.795Z,6.11
2019-04-22T03:57:48.893Z,6.18
2019-04-22T03:58:26.217Z,6.25
2019-04-22T03:58:49.585Z,6.32
2019-04-22T03:59:26.869Z,6.40
2019-04-22T04:00:55.531Z,6.50
2019-04-22T04:01:37.071Z,6.51
2019-04-22T04:03:09.775Z,6.67
2019-04-22T04:03:57.825Z,6.72
2019-04-22T04:04:36.016Z,6.71
2019-04-22T04:04:59.450Z,6.71
2019-04-22T04:05:41.182Z,6.71
2019-04-22T04:06:41.621Z,6.68
2019-04-22T04:07:47.512Z,6.73
2019-04-22T04:08:26.898Z,6.80
2019-04-22T04:10:01.449Z,7.24
2019-04-22T04:10:35.384Z,7.47
2019-04-22T04:10:53.182Z,7.71
2019-04-22T04:11:45.556Z,7.95
2019-04-22T04:12:03.580Z,8.18
2019-04-22T04:12:37.807Z,8.42
2019-04-22T04:13:08.527Z,8.54
2019-04-22T04:13:46.040Z,8.66
2019-04-22T04:14:55.686Z,8.65
2019-04-22T04:15:52.489Z,8.76
2019-04-22T04:16:35.025Z,8.89
2019-04-22T04:17:02.412Z,9.06
2019-04-22T04:17:45.385Z,9.20
2019-04-22T04:18:05.007Z,9.36
2019-04-22T04:18:47.461Z,9.44
2019-04-22T04:19:27.776Z,9.53
2019-04-22T04:21:41.236Z,10.06
2019-04-22T04:22:08.001Z,10.22
2019-04-22T04:23:50.523Z,10.72
2019-04-22T04:25:08.239Z,11.04
2019-04-22T04:26:37.378Z,11.58
2019-04-22T04:27:10.940Z,11.77
2019-04-22T04:28:03.553Z,11.96
2019-04-22T04:29:32.930Z,12.37
2019-04-22T04:30:18.847Z,12.55
2019-04-22T04:31:09.497Z,12.55
2019-04-22T04:32:16.612Z,12.67
2019-04-22T04:33:40.754Z,12.93
2019-04-22T04:34:25.023Z,12.89
2019-04-22T04:35:03.246Z,12.86
2019-04-22T04:36:32.556Z,12.95
2019-04-22T04:38:11.581Z,13.28
2019-04-22T04:38:36.590Z,13.36
2019-04-22T04:39:05.362Z,13.49
2019-04-22T04:39:44.219Z,13.50
2019-04-22T04:40:49.040Z,13.52
2019-04-22T04:41:28.377Z,13.67
2019-04-22T04:43:05.553Z,14.30
2019-04-22T04:43:42.081Z,14.44
2019-04-22T04:44:15.158Z,14.54
2019-04-22T04:45:21.719Z,14.52
2019-04-22T04:46:27.112Z,14.61
2019-04-22T04:47:56.580Z,14.90
2019-04-22T04:48:47.238Z,14.82
2019-04-22T04:50:11.994Z,15.13
2019-04-22T04:50:51.024Z,15.25
2019-04-22T04:51:26.912Z,15.34
2019-04-22T04:51:47.176Z,15.44
2019-04-22T04:52:39.136Z,15.61
2019-04-22T04:53:08.291Z,15.81
2019-04-22T04:53:52.759Z,15.93
2019-04-22T04:54:15.505Z,15.95
2019-04-22T04:54:35.560Z,16.02
2019-04-22T04:55:35.099Z,16.36
2019-04-22T05:03:27.757Z,17.14
2019-04-22T05:03:58.117Z,17.24
2019-04-22T05:04:37.147Z,17.32
2019-04-22T05:05:06.241Z,17.22
2019-04-22T05:05:26.824Z,17.33
2019-04-22T05:06:07.474Z,17.27
2019-04-22T05:06:42.979Z,17.04
2019-04-22T05:08:33.053Z,16.84
2019-04-22T05:09:21.449Z,14.74
2019-04-22T05:09:59.523Z,16.50
2019-04-22T05:10:41.155Z,16.57
2019-04-22T05:12:16.031Z,16.94
2019-04-22T05:14:30.775Z,17.45
2019-04-22T05:15:00.752Z,17.51
2019-04-22T05:15:27.265Z,17.42
2019-04-22T05:16:17.454Z,17.45
2019-04-22T05:16:46.443Z,17.53
2019-04-22T05:17:13.119Z,17.66
2019-04-22T05:18:14.846Z,18.00
2019-04-22T05:18:49.157Z,18.12
2019-04-22T05:19:47.670Z,18.13
2019-04-22T05:21:09.322Z,18.38
2019-04-22T05:21:42.203Z,18.43
2019-04-22T05:21:58.011Z,18.36
2019-04-22T05:22:35.703Z,18.25
2019-04-22T05:23:05.827Z,18.27
2019-04-22T05:24:00.958Z,18.24
2019-04-22T05:24:16.789Z,18.09
2019-04-22T05:24:47.145Z,17.94
2019-04-22T05:25:19.049Z,17.83
2019-04-22T05:25:48.880Z,17.85
2019-04-22T05:26:27.909Z,17.91
2019-04-22T05:26:57.015Z,17.98
2019-04-22T05:28:04.007Z,17.93
2019-04-22T05:28:38.136Z,17.77
2019-04-22T05:29:11.410Z,17.60
2019-04-22T05:30:23.430Z,17.38
2019-04-22T05:30:42.431Z,17.45
2019-04-22T05:31:56.997Z,17.56
2019-04-22T05:32:27.098Z,17.54
2019-04-22T05:32:55.329Z,17.62
2019-04-22T05:33:33.205Z,17.63
2019-04-22T05:34:04.534Z,17.66
2019-04-22T05:34:33.566Z,17.45
2019-04-22T05:35:42.437Z,17.04
2019-04-22T05:36:17.522Z,17.04
2019-04-22T05:36:48.207Z,17.13
2019-04-22T05:37:22.591Z,17.16
2019-04-22T05:37:58.006Z,17.22
2019-04-22T05:38:33.262Z,17.25
2019-04-22T05:39:00.058Z,17.24
2019-04-22T05:39:28.442Z,17.25
2019-04-22T05:40:08.826Z,17.21
2019-04-22T05:40:34.778Z,17.13
2019-04-22T05:41:17.104Z,17.10
2019-04-22T05:41:48.389Z,17.05
2019-04-22T05:42:17.820Z,17.10
2019-04-22T05:42:58.892Z,17.05
2019-04-22T05:43:30.986Z,17.08
2019-04-22T05:44:02.801Z,17.10
2019-04-22T05:44:37.286Z,17.10
2019-04-22T05:45:10.341Z,17.12
2019-04-22T05:45:35.796Z,17.17
2019-04-22T05:46:09.604Z,17.21
2019-04-22T05:46:45.942Z,17.29
2019-04-22T05:47:15.000Z,17.31
2019-04-22T05:47:52.019Z,17.19
2019-04-22T05:48:30.581Z,17.04
2019-04-22T05:49:14.617Z,17.02
2019-04-22T05:49:41.630Z,17.03
2019-04-22T05:50:02.349Z,17.06
2019-04-22T05:50:31.319Z,17.09
2019-04-22T05:51:25.822Z,17.08
2019-04-22T05:52:14.877Z,17.01
2019-04-22T05:52:49.772Z,17.01
2019-04-22T05:53:14.819Z,16.98
2019-04-22T05:53:57.466Z,16.95
2019-04-22T05:54:27.870Z,16.97
2019-04-22T05:55:02.503Z,17.02
2019-04-22T05:55:36.039Z,17.06
2019-04-22T05:56:04.218Z,17.07
2019-04-22T05:57:14.539Z,17.08
2019-04-22T05:57:37.263Z,17.08
2019-04-22T05:58:18.876Z,17.05
2019-04-22T05:58:54.106Z,16.94
2019-04-22T05:59:27.383Z,16.89
2019-04-22T06:01:30.746Z,16.66
2019-04-22T06:02:21.103Z,16.59
2019-04-22T06:02:47.637Z,16.43
2019-04-22T06:03:12.242Z,16.27
2019-04-22T06:03:56.483Z,16.29
2019-04-22T06:04:17.768Z,16.27
2019-04-22T06:04:53.998Z,16.22
2019-04-22T06:05:24.728Z,16.18
2019-04-22T06:05:55.678Z,16.15
2019-04-22T06:06:43.067Z,16.04
2019-04-22T06:07:00.382Z,16.07
2019-04-22T06:07:36.869Z,16.03
2019-04-22T06:08:11.898Z,16.04
2019-04-22T06:08:48.702Z,16.03
2019-04-22T06:09:12.469Z,16.11
2019-04-22T06:09:50.859Z,16.13
2019-04-22T06:10:39.423Z,16.18
2019-04-22T06:10:58.112Z,16.23
2019-04-22T06:11:31.249Z,16.22
2019-04-22T06:11:54.478Z,16.22
2019-04-22T06:12:26.420Z,16.15
2019-04-22T06:13:01.101Z,15.95
2019-04-22T06:13:36.630Z,15.80
2019-04-22T06:14:12.392Z,15.61
2019-04-22T06:14:39.806Z,15.45
2019-04-22T06:15:21.228Z,15.30
2019-04-22T06:15:49.242Z,15.29
2019-04-22T06:16:26.444Z,15.27
2019-04-22T06:16:57.167Z,15.27
2019-04-22T06:17:31.326Z,15.26
2019-04-22T06:18:33.373Z,15.38
2019-04-22T06:19:44.399Z,15.46
2019-04-22T06:20:20.232Z,15.53
2019-04-22T06:20:53.845Z,15.59
2019-04-22T06:21:18.727Z,15.68
2019-04-22T06:21:49.989Z,15.76
2019-04-22T06:23:40.410Z,15.91
2019-04-22T06:24:11.217Z,15.91
2019-04-22T06:24:55.256Z,15.93
2019-04-22T06:25:22.681Z,15.96
2019-04-22T06:25:57.481Z,15.87
2019-04-22T06:27:31.022Z,15.62
2019-04-22T06:28:03.462Z,15.50
2019-04-22T06:29:09.347Z,15.51
2019-04-22T06:29:31.605Z,15.64
2019-04-22T06:30:10.772Z,15.73
2019-04-22T06:31:16.035Z,15.78
2019-04-22T06:32:11.706Z,15.74
2019-04-22T06:32:26.423Z,15.70
2019-04-22T06:33:00.846Z,15.62
2019-04-22T06:33:34.123Z,15.56
2019-04-22T06:34:05.929Z,15.45
2019-04-22T06:34:40.418Z,15.41
2019-04-22T06:35:19.806Z,15.43
2019-04-22T06:35:56.323Z,15.48
2019-04-22T06:36:21.122Z,15.43
2019-04-22T06:36:53.219Z,15.32
2019-04-22T06:38:18.117Z,15.24
2019-04-22T06:38:40.412Z,15.22
2019-04-22T06:38:59.205Z,15.26
2019-04-22T06:39:36.986Z,15.33
2019-04-22T06:40:09.620Z,15.32
2019-04-22T06:40:42.588Z,15.38
2019-04-22T06:41:17.105Z,15.38
2019-04-22T06:41:47.712Z,15.37
2019-04-22T06:42:26.614Z,15.32
2019-04-22T06:42:58.580Z,15.16
2019-04-22T06:43:22.419Z,15.02
2019-04-22T06:44:09.410Z,15.00
2019-04-22T06:44:34.231Z,15.02
2019-04-22T06:45:07.664Z,15.00
2019-04-22T06:45:33.795Z,15.14
2019-04-22T06:46:17.097Z,15.13
2019-04-22T06:46:47.466Z,15.10
2019-04-22T06:47:28.051Z,15.07
2019-04-22T06:48:04.520Z,15.15
2019-04-22T06:48:28.441Z,15.22
2019-04-22T06:48:55.187Z,15.24
2019-04-22T06:49:31.853Z,15.22
2019-04-22T06:49:59.162Z,15.22
2019-04-22T06:50:40.185Z,15.25
2019-04-22T06:51:09.482Z,15.19
2019-04-22T06:52:52.395Z,15.18
2019-04-22T06:53:23.708Z,15.18
2019-04-22T06:53:53.713Z,14.97
2019-04-22T06:54:28.186Z,14.96
2019-04-22T06:55:03.939Z,14.99
2019-04-22T06:55:35.708Z,15.05
2019-04-22T06:56:06.421Z,15.11
2019-04-22T06:56:42.859Z,15.18
2019-04-22T06:57:16.527Z,15.22
2019-04-22T06:57:43.466Z,15.25
2019-04-22T06:58:15.217Z,15.19
2019-04-22T06:58:53.659Z,14.97
2019-04-22T06:59:25.158Z,14.85
2019-04-22T07:00:01.722Z,14.77
2019-04-22T07:00:35.131Z,14.52
2019-04-22T07:01:05.914Z,14.28
2019-04-22T07:01:43.271Z,14.28
2019-04-22T07:02:55.853Z,14.21
2019-04-22T07:04:24.322Z,14.15
2019-04-22T07:04:59.134Z,14.22
2019-04-22T07:05:28.019Z,14.31
2019-04-22T07:06:19.396Z,14.43
2019-04-22T07:07:08.292Z,14.59
2019-04-22T07:07:38.390Z,14.66
2019-04-22T07:08:39.327Z,14.76
2019-04-22T07:09:59.974Z,14.96
2019-04-22T07:10:35.267Z,15.03
2019-04-22T07:10:58.253Z,15.03
2019-04-22T07:11:33.895Z,14.99
2019-04-22T07:12:05.025Z,14.95
2019-04-22T07:12:36.444Z,14.91
2019-04-22T07:13:10.997Z,14.85
2019-04-22T07:13:43.516Z,14.79
2019-04-22T07:14:18.172Z,14.85
2019-04-22T07:14:48.454Z,14.93
2019-04-22T07:15:35.798Z,15.00
2019-04-22T07:16:32.381Z,15.09
2019-04-22T07:17:05.221Z,15.03
2019-04-22T07:17:38.066Z,15.08
2019-04-22T07:18:11.450Z,15.11
2019-04-22T07:19:13.823Z,15.16
2019-04-22T07:19:45.288Z,15.26
2019-04-22T07:20:17.775Z,15.34
2019-04-22T07:20:55.438Z,15.41
2019-04-22T07:21:27.428Z,15.48
2019-04-22T07:21:57.615Z,15.54
2019-04-22T07:22:33.916Z,15.61
2019-04-22T07:23:11.948Z,15.67
2019-04-22T07:23:41.703Z,15.74
2019-04-22T07:25:29.059Z,15.50
2019-04-22T07:25:49.286Z,15.36
2019-04-22T07:26:20.480Z,15.30
2019-04-22T07:26:50.798Z,15.27
2019-04-22T07:27:40.440Z,15.25
2019-04-22T07:27:58.304Z,15.28
2019-04-22T07:28:44.862Z,15.33
2019-04-22T07:29:21.803Z,15.43
2019-04-22T07:29:40.834Z,15.40
2019-04-22T07:30:16.124Z,15.42
2019-04-22T07:30:58.710Z,15.50
2019-04-22T07:31:15.807Z,15.59
2019-04-22T07:31:55.762Z,15.63
2019-04-22T07:32:47.758Z,15.69
2019-04-22T07:33:12.616Z,15.67
2019-04-22T07:33:32.432Z,15.70
2019-04-22T07:34:17.843Z,15.70
2019-04-22T07:34:36.048Z,15.73
2019-04-22T07:35:08.570Z,15.71
2019-04-22T07:35:51.815Z,15.71
2019-04-22T07:36:36.963Z,15.71
2019-04-22T07:37:11.013Z,15.75
2019-04-22T07:37:28.174Z,15.78
2019-04-22T07:37:47.072Z,15.81
2019-04-22T07:38:56.529Z,15.88
2019-04-22T07:39:29.718Z,15.95
2019-04-22T07:40:02.336Z,15.96
2019-04-22T07:40:41.579Z,16.06
2019-04-22T07:41:09.455Z,16.12
2019-04-22T07:41:44.643Z,16.16
2019-04-22T07:42:22.736Z,16.21
2019-04-22T07:42:49.085Z,16.24
2019-04-22T07:43:27.931Z,16.30
2019-04-22T07:44:31.045Z,16.36
2019-04-22T07:45:05.029Z,16.41
2019-04-22T07:45:36.191Z,16.44
2019-04-22T07:46:11.317Z,16.48
2019-04-22T07:46:44.502Z,16.55
2019-04-22T07:47:18.468Z,16.63
2019-04-22T07:48:33.962Z,16.68
2019-04-22T07:48:51.833Z,16.64
2019-04-22T07:49:33.589Z,16.38
2019-04-22T07:50:03.913Z,16.33
2019-04-22T07:50:45.635Z,16.31
2019-04-22T07:51:07.234Z,16.37
2019-04-22T07:51:36.817Z,16.42
2019-04-22T07:52:10.075Z,16.50
2019-04-22T07:52:46.731Z,16.60
2019-04-22T07:53:17.379Z,16.67
2019-04-22T07:53:51.656Z,16.63
2019-04-22T07:54:26.380Z,16.59
2019-04-22T07:54:56.971Z,16.51
2019-04-22T07:55:32.538Z,16.36
2019-04-22T07:56:05.298Z,16.32
2019-04-22T07:56:40.950Z,16.39
2019-04-22T07:57:15.336Z,16.54
2019-04-22T07:57:47.646Z,16.69
2019-04-22T07:58:18.691Z,16.80
2019-04-22T07:58:50.346Z,16.83
2019-04-22T07:59:23.570Z,16.94
2019-04-22T07:59:59.552Z,16.91
2019-04-22T08:00:29.728Z,16.90
2019-04-22T08:01:03.988Z,16.98
2019-04-22T08:01:30.837Z,17.08
2019-04-22T08:02:10.401Z,17.15
2019-04-22T08:02:44.142Z,17.19
2019-04-22T08:03:22.085Z,17.25
2019-04-22T08:04:13.156Z,17.29
2019-04-22T08:05:07.329Z,17.45
2019-04-22T08:06:05.375Z,17.39
2019-04-22T08:06:31.412Z,17.39
2019-04-22T08:07:14.375Z,17.39
2019-04-22T08:07:35.977Z,17.42
2019-04-22T08:08:21.477Z,17.54
2019-04-22T08:08:45.115Z,17.63
2019-04-22T08:09:19.862Z,17.68
2019-04-22T08:10:04.531Z,17.70
2019-04-22T08:10:29.970Z,17.71
2019-04-22T08:11:22.141Z,17.72
2019-04-22T08:11:46.957Z,17.74
2019-04-22T08:11:58.110Z,17.75
2019-04-22T08:12:39.000Z,17.68
2019-04-22T08:13:14.951Z,17.69
2019-04-22T08:13:40.626Z,17.77
2019-04-22T08:14:14.969Z,17.87
2019-04-22T08:14:45.618Z,17.94
2019-04-22T08:15:21.318Z,17.94
2019-04-22T08:15:58.122Z,17.93
2019-04-22T08:16:29.559Z,17.91
2019-04-22T08:17:14.377Z,17.95
2019-04-22T08:18:10.148Z,18.05
2019-04-22T08:18:39.571Z,18.13
2019-04-22T08:19:15.803Z,18.21
2019-04-22T08:19:48.421Z,18.17
2019-04-22T08:20:23.827Z,18.21
2019-04-22T08:20:56.696Z,18.20
2019-04-22T08:21:23.645Z,18.19
2019-04-22T08:22:01.174Z,17.82
2019-04-22T08:22:26.053Z,17.39
2019-04-22T08:23:09.044Z,17.36
2019-04-22T08:24:29.388Z,17.25
2019-04-22T08:24:51.261Z,17.25
2019-04-22T08:25:20.983Z,17.31
2019-04-22T08:25:47.466Z,17.37
2019-04-22T08:26:27.504Z,17.40
2019-04-22T08:27:01.216Z,17.46
2019-04-22T08:27:30.425Z,17.54
2019-04-22T08:28:05.418Z,17.61
2019-04-22T08:28:40.750Z,17.69
2019-04-22T08:29:14.524Z,17.73
2019-04-22T08:29:52.265Z,17.81
2019-04-22T08:30:20.365Z,17.86
2019-04-22T08:31:26.299Z,17.92
2019-04-22T08:32:01.290Z,17.92
2019-04-22T08:32:29.248Z,18.00
2019-04-22T08:33:04.098Z,18.08
2019-04-22T08:33:35.280Z,18.12
2019-04-22T08:34:16.669Z,18.11
2019-04-22T08:34:39.773Z,18.13
2019-04-22T08:35:20.225Z,18.20
2019-04-22T08:36:02.101Z,18.28
2019-04-22T08:37:13.086Z,18.30
2019-04-22T08:37:57.616Z,18.22
2019-04-22T08:38:37.251Z,18.27
2019-04-22T08:39:12.630Z,18.30
2019-04-22T08:39:35.970Z,18.32
2019-04-22T08:40:12.586Z,18.36
2019-04-22T08:40:50.033Z,18.45
2019-04-22T08:41:49.855Z,18.58
2019-04-22T08:42:35.413Z,18.61
2019-04-22T08:43:37.269Z,18.61
2019-04-22T08:44:17.451Z,18.63
2019-04-22T08:45:01.129Z,18.63
2019-04-22T08:45:57.025Z,18.41
2019-04-22T08:46:24.129Z,18.34
2019-04-22T08:46:53.597Z,18.31
2019-04-22T08:47:27.461Z,18.30